sensor_id;sensor_type;location;lat;lon;timestamp;P1;durP1;ratioP1;P2;durP2;ratioP2
7525;SDS011;3804;50.860;6.208;2023-03-04T00:02:20;63.00;;;26.77;;
7525;SDS011;3804;50.860;6.208;2023-03-04T00:04:46;59.80;;;26.93;;
7525;SDS011;3804;50.860;6.208;2023-03-04T00:07:14;60.73;;;26.57;;
7525;SDS011;3804;50.860;6.208;2023-03-04T00:09:43;63.33;;;26.10;;
7525;SDS011;3804;50.860;6.208;2023-03-04T00:12:09;54.03;;;26.90;;
7525;SDS011;3804;50.860;6.208;2023-03-04T00:14:36;66.50;;;26.40;;
7525;SDS011;3804;50.860;6.208;2023-03-04T00:17:03;64.00;;;27.73;;
7525;SDS011;3804;50.860;6.208;2023-03-04T00:19:30;59.87;;;26.47;;
7525;SDS011;3804;50.860;6.208;2023-03-04T00:21:56;61.80;;;25.50;;
7525;SDS011;3804;50.860;6.208;2023-03-04T00:24:23;64.83;;;27.10;;
7525;SDS011;3804;50.860;6.208;2023-03-04T00:26:50;58.17;;;25.43;;
7525;SDS011;3804;50.860;6.208;2023-03-04T00:29:17;59.77;;;26.13;;
7525;SDS011;3804;50.860;6.208;2023-03-04T00:31:44;56.67;;;24.40;;
7525;SDS011;3804;50.860;6.208;2023-03-04T00:34:10;60.10;;;25.40;;
7525;SDS011;3804;50.860;6.208;2023-03-04T00:36:37;57.27;;;26.03;;
7525;SDS011;3804;50.860;6.208;2023-03-04T00:39:04;53.77;;;24.80;;
7525;SDS011;3804;50.860;6.208;2023-03-04T00:41:31;54.57;;;25.33;;
7525;SDS011;3804;50.860;6.208;2023-03-04T00:43:57;57.90;;;24.80;;
7525;SDS011;3804;50.860;6.208;2023-03-04T00:46:24;53.50;;;24.60;;
7525;SDS011;3804;50.860;6.208;2023-03-04T00:48:51;53.53;;;24.27;;
7525;SDS011;3804;50.860;6.208;2023-03-04T00:51:18;56.20;;;24.70;;
7525;SDS011;3804;50.860;6.208;2023-03-04T00:53:44;56.30;;;25.70;;
7525;SDS011;3804;50.860;6.208;2023-03-04T00:56:12;59.93;;;25.77;;
7525;SDS011;3804;50.860;6.208;2023-03-04T00:58:39;58.10;;;26.80;;
7525;SDS011;3804;50.860;6.208;2023-03-04T01:01:06;60.83;;;25.50;;
7525;SDS011;3804;50.860;6.208;2023-03-04T01:03:33;51.87;;;24.70;;
7525;SDS011;3804;50.860;6.208;2023-03-04T01:06:00;58.70;;;25.87;;
7525;SDS011;3804;50.860;6.208;2023-03-04T01:08:26;54.40;;;25.43;;
7525;SDS011;3804;50.860;6.208;2023-03-04T01:10:53;60.87;;;25.93;;
7525;SDS011;3804;50.860;6.208;2023-03-04T01:13:20;54.17;;;25.03;;
7525;SDS011;3804;50.860;6.208;2023-03-04T01:15:47;50.07;;;22.47;;
7525;SDS011;3804;50.860;6.208;2023-03-04T01:18:14;56.80;;;24.43;;
7525;SDS011;3804;50.860;6.208;2023-03-04T01:20:40;55.23;;;25.27;;
7525;SDS011;3804;50.860;6.208;2023-03-04T01:23:07;53.53;;;24.67;;
7525;SDS011;3804;50.860;6.208;2023-03-04T01:25:34;54.80;;;24.80;;
7525;SDS011;3804;50.860;6.208;2023-03-04T01:28:00;49.43;;;22.73;;
7525;SDS011;3804;50.860;6.208;2023-03-04T01:30:27;48.00;;;22.33;;
7525;SDS011;3804;50.860;6.208;2023-03-04T01:32:55;52.90;;;24.53;;
7525;SDS011;3804;50.860;6.208;2023-03-04T01:35:21;48.53;;;24.30;;
7525;SDS011;3804;50.860;6.208;2023-03-04T01:37:48;52.10;;;23.33;;
7525;SDS011;3804;50.860;6.208;2023-03-04T01:43:57;48.37;;;23.20;;
7525;SDS011;3804;50.860;6.208;2023-03-04T01:46:26;52.40;;;24.43;;
7525;SDS011;3804;50.860;6.208;2023-03-04T01:48:53;49.13;;;22.93;;
7525;SDS011;3804;50.860;6.208;2023-03-04T01:51:20;50.13;;;22.50;;
7525;SDS011;3804;50.860;6.208;2023-03-04T01:53:48;51.37;;;22.53;;
7525;SDS011;3804;50.860;6.208;2023-03-04T01:56:36;52.30;;;23.90;;
7525;SDS011;3804;50.860;6.208;2023-03-04T01:59:14;53.23;;;23.00;;
7525;SDS011;3804;50.860;6.208;2023-03-04T02:01:46;53.83;;;22.20;;
7525;SDS011;3804;50.860;6.208;2023-03-04T02:04:14;46.33;;;21.33;;
7525;SDS011;3804;50.860;6.208;2023-03-04T02:06:41;52.30;;;21.80;;
7525;SDS011;3804;50.860;6.208;2023-03-04T02:09:09;45.57;;;20.73;;
7525;SDS011;3804;50.860;6.208;2023-03-04T02:11:36;42.23;;;19.50;;
7525;SDS011;3804;50.860;6.208;2023-03-04T02:14:03;46.00;;;20.73;;
7525;SDS011;3804;50.860;6.208;2023-03-04T02:16:31;48.77;;;21.83;;
7525;SDS011;3804;50.860;6.208;2023-03-04T02:18:57;42.50;;;19.93;;
7525;SDS011;3804;50.860;6.208;2023-03-04T02:21:32;45.87;;;20.00;;
7525;SDS011;3804;50.860;6.208;2023-03-04T02:24:04;47.43;;;22.07;;
7525;SDS011;3804;50.860;6.208;2023-03-04T02:26:32;42.03;;;19.87;;
7525;SDS011;3804;50.860;6.208;2023-03-04T02:29:01;43.23;;;19.87;;
7525;SDS011;3804;50.860;6.208;2023-03-04T02:31:35;47.53;;;20.37;;
7525;SDS011;3804;50.860;6.208;2023-03-04T02:34:04;44.33;;;20.00;;
7525;SDS011;3804;50.860;6.208;2023-03-04T02:36:31;44.47;;;19.60;;
7525;SDS011;3804;50.860;6.208;2023-03-04T02:39:02;43.73;;;20.13;;
7525;SDS011;3804;50.860;6.208;2023-03-04T02:41:29;43.50;;;20.43;;
7525;SDS011;3804;50.860;6.208;2023-03-04T02:43:57;44.93;;;20.57;;
7525;SDS011;3804;50.860;6.208;2023-03-04T02:46:25;43.60;;;19.20;;
7525;SDS011;3804;50.860;6.208;2023-03-04T02:48:52;45.57;;;21.63;;
7525;SDS011;3804;50.860;6.208;2023-03-04T02:51:20;42.60;;;20.13;;
7525;SDS011;3804;50.860;6.208;2023-03-04T02:53:47;50.97;;;21.60;;
7525;SDS011;3804;50.860;6.208;2023-03-04T02:56:14;47.80;;;21.23;;
7525;SDS011;3804;50.860;6.208;2023-03-04T02:58:40;46.23;;;20.97;;
7525;SDS011;3804;50.860;6.208;2023-03-04T03:01:09;42.73;;;20.33;;
7525;SDS011;3804;50.860;6.208;2023-03-04T03:03:36;46.27;;;20.47;;
7525;SDS011;3804;50.860;6.208;2023-03-04T03:06:03;38.67;;;19.03;;
7525;SDS011;3804;50.860;6.208;2023-03-04T03:08:30;42.83;;;19.80;;
7525;SDS011;3804;50.860;6.208;2023-03-04T03:10:59;44.77;;;20.13;;
7525;SDS011;3804;50.860;6.208;2023-03-04T03:13:26;47.80;;;20.10;;
7525;SDS011;3804;50.860;6.208;2023-03-04T03:15:55;42.37;;;18.80;;
7525;SDS011;3804;50.860;6.208;2023-03-04T03:18:23;40.80;;;18.23;;
7525;SDS011;3804;50.860;6.208;2023-03-04T03:20:50;47.03;;;21.07;;
7525;SDS011;3804;50.860;6.208;2023-03-04T03:23:16;41.30;;;18.67;;
7525;SDS011;3804;50.860;6.208;2023-03-04T03:25:43;43.17;;;19.67;;
7525;SDS011;3804;50.860;6.208;2023-03-04T03:28:10;44.40;;;19.73;;
7525;SDS011;3804;50.860;6.208;2023-03-04T03:30:37;43.63;;;19.13;;
7525;SDS011;3804;50.860;6.208;2023-03-04T03:33:05;43.73;;;19.47;;
7525;SDS011;3804;50.860;6.208;2023-03-04T03:35:32;42.27;;;19.47;;
7525;SDS011;3804;50.860;6.208;2023-03-04T03:37:58;49.13;;;18.90;;
7525;SDS011;3804;50.860;6.208;2023-03-04T03:40:25;37.17;;;16.80;;
7525;SDS011;3804;50.860;6.208;2023-03-04T03:42:52;38.30;;;16.13;;
7525;SDS011;3804;50.860;6.208;2023-03-04T03:45:19;35.40;;;17.00;;
7525;SDS011;3804;50.860;6.208;2023-03-04T03:47:45;37.77;;;16.53;;
7525;SDS011;3804;50.860;6.208;2023-03-04T03:50:12;36.83;;;16.73;;
7525;SDS011;3804;50.860;6.208;2023-03-04T03:52:39;42.27;;;17.47;;
7525;SDS011;3804;50.860;6.208;2023-03-04T03:55:05;41.20;;;17.00;;
7525;SDS011;3804;50.860;6.208;2023-03-04T03:57:32;37.83;;;16.50;;
7525;SDS011;3804;50.860;6.208;2023-03-04T03:59:59;39.20;;;17.73;;
7525;SDS011;3804;50.860;6.208;2023-03-04T04:02:26;35.63;;;16.47;;
7525;SDS011;3804;50.860;6.208;2023-03-04T04:04:53;38.40;;;16.27;;
7525;SDS011;3804;50.860;6.208;2023-03-04T04:07:20;37.03;;;16.77;;
7525;SDS011;3804;50.860;6.208;2023-03-04T04:09:46;36.17;;;16.97;;
7525;SDS011;3804;50.860;6.208;2023-03-04T04:12:14;36.27;;;15.03;;
7525;SDS011;3804;50.860;6.208;2023-03-04T04:14:41;34.47;;;15.37;;
7525;SDS011;3804;50.860;6.208;2023-03-04T04:17:08;32.33;;;14.67;;
7525;SDS011;3804;50.860;6.208;2023-03-04T04:19:35;36.00;;;16.00;;
7525;SDS011;3804;50.860;6.208;2023-03-04T04:22:02;32.27;;;14.67;;
7525;SDS011;3804;50.860;6.208;2023-03-04T04:24:29;34.87;;;15.50;;
7525;SDS011;3804;50.860;6.208;2023-03-04T04:26:56;37.40;;;15.83;;
7525;SDS011;3804;50.860;6.208;2023-03-04T04:29:23;35.50;;;15.77;;
7525;SDS011;3804;50.860;6.208;2023-03-04T04:31:50;35.87;;;15.63;;
7525;SDS011;3804;50.860;6.208;2023-03-04T04:34:16;36.53;;;16.40;;
7525;SDS011;3804;50.860;6.208;2023-03-04T04:36:43;37.73;;;16.13;;
7525;SDS011;3804;50.860;6.208;2023-03-04T04:39:10;37.47;;;15.97;;
7525;SDS011;3804;50.860;6.208;2023-03-04T04:41:38;35.50;;;14.93;;
7525;SDS011;3804;50.860;6.208;2023-03-04T04:44:05;38.23;;;16.67;;
7525;SDS011;3804;50.860;6.208;2023-03-04T04:46:32;32.80;;;15.57;;
7525;SDS011;3804;50.860;6.208;2023-03-04T04:48:59;33.23;;;13.17;;
7525;SDS011;3804;50.860;6.208;2023-03-04T04:51:26;26.87;;;12.53;;
7525;SDS011;3804;50.860;6.208;2023-03-04T04:53:53;25.57;;;11.60;;
7525;SDS011;3804;50.860;6.208;2023-03-04T04:56:22;31.03;;;13.20;;
7525;SDS011;3804;50.860;6.208;2023-03-04T04:58:50;31.30;;;13.40;;
7525;SDS011;3804;50.860;6.208;2023-03-04T05:01:17;33.23;;;14.83;;
7525;SDS011;3804;50.860;6.208;2023-03-04T05:03:44;30.53;;;13.33;;
7525;SDS011;3804;50.860;6.208;2023-03-04T05:06:11;36.17;;;13.60;;
7525;SDS011;3804;50.860;6.208;2023-03-04T05:08:38;34.13;;;13.80;;
7525;SDS011;3804;50.860;6.208;2023-03-04T05:11:05;31.40;;;13.60;;
7525;SDS011;3804;50.860;6.208;2023-03-04T05:13:32;29.20;;;14.83;;
7525;SDS011;3804;50.860;6.208;2023-03-04T05:15:58;34.27;;;14.10;;
7525;SDS011;3804;50.860;6.208;2023-03-04T05:18:25;29.90;;;13.00;;
7525;SDS011;3804;50.860;6.208;2023-03-04T05:20:57;25.87;;;11.83;;
7525;SDS011;3804;50.860;6.208;2023-03-04T05:23:25;25.10;;;11.57;;
7525;SDS011;3804;50.860;6.208;2023-03-04T05:25:53;24.47;;;9.07;;
7525;SDS011;3804;50.860;6.208;2023-03-04T05:28:20;22.23;;;8.70;;
7525;SDS011;3804;50.860;6.208;2023-03-04T05:30:46;23.87;;;7.70;;
7525;SDS011;3804;50.860;6.208;2023-03-04T05:33:13;17.53;;;7.87;;
7525;SDS011;3804;50.860;6.208;2023-03-04T05:35:41;16.10;;;7.10;;
7525;SDS011;3804;50.860;6.208;2023-03-04T05:38:09;14.37;;;6.43;;
7525;SDS011;3804;50.860;6.208;2023-03-04T05:40:36;16.57;;;6.73;;
7525;SDS011;3804;50.860;6.208;2023-03-04T05:43:03;16.63;;;6.90;;
7525;SDS011;3804;50.860;6.208;2023-03-04T05:45:30;18.37;;;6.27;;
7525;SDS011;3804;50.860;6.208;2023-03-04T05:47:57;18.23;;;6.57;;
7525;SDS011;3804;50.860;6.208;2023-03-04T05:50:25;21.90;;;7.83;;
7525;SDS011;3804;50.860;6.208;2023-03-04T05:52:52;23.60;;;7.80;;
7525;SDS011;3804;50.860;6.208;2023-03-04T05:55:18;17.87;;;7.53;;
7525;SDS011;3804;50.860;6.208;2023-03-04T05:57:45;20.20;;;7.33;;
7525;SDS011;3804;50.860;6.208;2023-03-04T06:00:12;15.10;;;6.87;;
7525;SDS011;3804;50.860;6.208;2023-03-04T06:02:40;21.47;;;7.77;;
7525;SDS011;3804;50.860;6.208;2023-03-04T06:05:08;13.97;;;6.80;;
7525;SDS011;3804;50.860;6.208;2023-03-04T06:07:35;17.53;;;7.60;;
7525;SDS011;3804;50.860;6.208;2023-03-04T06:10:02;19.50;;;7.90;;
7525;SDS011;3804;50.860;6.208;2023-03-04T06:12:29;16.63;;;7.33;;
7525;SDS011;3804;50.860;6.208;2023-03-04T06:14:55;14.93;;;6.80;;
7525;SDS011;3804;50.860;6.208;2023-03-04T06:17:22;15.83;;;7.07;;
7525;SDS011;3804;50.860;6.208;2023-03-04T06:19:49;21.43;;;8.57;;
7525;SDS011;3804;50.860;6.208;2023-03-04T06:22:15;18.07;;;7.07;;
7525;SDS011;3804;50.860;6.208;2023-03-04T06:24:42;16.83;;;7.10;;
7525;SDS011;3804;50.860;6.208;2023-03-04T06:27:09;19.20;;;6.80;;
7525;SDS011;3804;50.860;6.208;2023-03-04T06:29:35;18.87;;;6.87;;
7525;SDS011;3804;50.860;6.208;2023-03-04T06:32:02;16.67;;;7.20;;
7525;SDS011;3804;50.860;6.208;2023-03-04T06:34:29;17.13;;;7.47;;
7525;SDS011;3804;50.860;6.208;2023-03-04T06:36:55;16.37;;;6.80;;
7525;SDS011;3804;50.860;6.208;2023-03-04T06:39:22;17.97;;;6.80;;
7525;SDS011;3804;50.860;6.208;2023-03-04T06:41:49;13.60;;;6.60;;
7525;SDS011;3804;50.860;6.208;2023-03-04T06:44:16;13.70;;;6.20;;
7525;SDS011;3804;50.860;6.208;2023-03-04T06:46:42;13.73;;;5.90;;
7525;SDS011;3804;50.860;6.208;2023-03-04T06:49:09;18.87;;;6.67;;
7525;SDS011;3804;50.860;6.208;2023-03-04T06:51:36;16.40;;;6.07;;
7525;SDS011;3804;50.860;6.208;2023-03-04T06:54:03;16.83;;;5.97;;
7525;SDS011;3804;50.860;6.208;2023-03-04T06:56:30;12.23;;;4.67;;
7525;SDS011;3804;50.860;6.208;2023-03-04T06:58:56;16.70;;;5.60;;
7525;SDS011;3804;50.860;6.208;2023-03-04T07:01:24;10.83;;;4.90;;
7525;SDS011;3804;50.860;6.208;2023-03-04T07:03:52;13.07;;;5.07;;
7525;SDS011;3804;50.860;6.208;2023-03-04T07:06:20;12.83;;;5.10;;
7525;SDS011;3804;50.860;6.208;2023-03-04T07:08:47;16.43;;;6.03;;
7525;SDS011;3804;50.860;6.208;2023-03-04T07:11:14;17.97;;;6.00;;
7525;SDS011;3804;50.860;6.208;2023-03-04T07:13:41;18.93;;;5.20;;
7525;SDS011;3804;50.860;6.208;2023-03-04T07:16:09;14.03;;;4.57;;
7525;SDS011;3804;50.860;6.208;2023-03-04T07:18:37;17.93;;;5.27;;
7525;SDS011;3804;50.860;6.208;2023-03-04T07:21:04;15.03;;;4.87;;
7525;SDS011;3804;50.860;6.208;2023-03-04T07:23:31;14.33;;;4.97;;
7525;SDS011;3804;50.860;6.208;2023-03-04T07:25:58;10.87;;;4.93;;
7525;SDS011;3804;50.860;6.208;2023-03-04T07:28:25;14.43;;;5.93;;
7525;SDS011;3804;50.860;6.208;2023-03-04T07:30:52;19.30;;;5.37;;
7525;SDS011;3804;50.860;6.208;2023-03-04T07:33:18;10.80;;;5.20;;
7525;SDS011;3804;50.860;6.208;2023-03-04T07:35:45;14.10;;;5.27;;
7525;SDS011;3804;50.860;6.208;2023-03-04T07:38:12;11.03;;;4.73;;
7525;SDS011;3804;50.860;6.208;2023-03-04T07:40:39;13.13;;;5.17;;
7525;SDS011;3804;50.860;6.208;2023-03-04T07:43:05;16.53;;;4.63;;
7525;SDS011;3804;50.860;6.208;2023-03-04T07:45:32;9.67;;;4.57;;
7525;SDS011;3804;50.860;6.208;2023-03-04T07:47:59;18.07;;;4.47;;
7525;SDS011;3804;50.860;6.208;2023-03-04T07:50:26;12.40;;;4.63;;
7525;SDS011;3804;50.860;6.208;2023-03-04T07:52:52;22.50;;;5.60;;
7525;SDS011;3804;50.860;6.208;2023-03-04T07:55:19;12.00;;;4.27;;
7525;SDS011;3804;50.860;6.208;2023-03-04T07:57:46;11.67;;;4.20;;
7525;SDS011;3804;50.860;6.208;2023-03-04T08:00:14;10.50;;;3.60;;
7525;SDS011;3804;50.860;6.208;2023-03-04T08:02:41;12.13;;;4.10;;
7525;SDS011;3804;50.860;6.208;2023-03-04T08:05:11;11.70;;;3.77;;
7525;SDS011;3804;50.860;6.208;2023-03-04T08:07:38;12.43;;;4.43;;
7525;SDS011;3804;50.860;6.208;2023-03-04T08:10:05;15.30;;;4.60;;
7525;SDS011;3804;50.860;6.208;2023-03-04T08:12:31;14.13;;;5.17;;
7525;SDS011;3804;50.860;6.208;2023-03-04T08:14:59;12.07;;;4.20;;
7525;SDS011;3804;50.860;6.208;2023-03-04T08:17:25;10.97;;;4.27;;
7525;SDS011;3804;50.860;6.208;2023-03-04T08:19:55;12.23;;;3.87;;
7525;SDS011;3804;50.860;6.208;2023-03-04T08:22:21;14.37;;;3.63;;
7525;SDS011;3804;50.860;6.208;2023-03-04T08:24:48;10.30;;;3.97;;
7525;SDS011;3804;50.860;6.208;2023-03-04T08:27:15;11.10;;;4.53;;
7525;SDS011;3804;50.860;6.208;2023-03-04T08:29:42;14.40;;;4.47;;
7525;SDS011;3804;50.860;6.208;2023-03-04T08:32:08;13.30;;;4.83;;
7525;SDS011;3804;50.860;6.208;2023-03-04T08:34:37;11.33;;;3.67;;
7525;SDS011;3804;50.860;6.208;2023-03-04T08:37:04;7.20;;;3.60;;
7525;SDS011;3804;50.860;6.208;2023-03-04T08:39:31;11.10;;;4.53;;
7525;SDS011;3804;50.860;6.208;2023-03-04T08:42:01;11.77;;;4.30;;
7525;SDS011;3804;50.860;6.208;2023-03-04T08:44:27;8.97;;;3.10;;
7525;SDS011;3804;50.860;6.208;2023-03-04T08:46:54;7.43;;;3.10;;
7525;SDS011;3804;50.860;6.208;2023-03-04T08:49:21;9.10;;;3.40;;
7525;SDS011;3804;50.860;6.208;2023-03-04T08:51:48;12.73;;;3.63;;
7525;SDS011;3804;50.860;6.208;2023-03-04T08:54:15;10.70;;;2.43;;
7525;SDS011;3804;50.860;6.208;2023-03-04T08:56:42;9.40;;;3.33;;
7525;SDS011;3804;50.860;6.208;2023-03-04T08:59:09;8.20;;;2.67;;
7525;SDS011;3804;50.860;6.208;2023-03-04T09:01:35;8.47;;;3.10;;
7525;SDS011;3804;50.860;6.208;2023-03-04T09:04:02;12.90;;;3.27;;
7525;SDS011;3804;50.860;6.208;2023-03-04T09:06:29;5.67;;;2.40;;
7525;SDS011;3804;50.860;6.208;2023-03-04T09:08:55;8.77;;;2.60;;
7525;SDS011;3804;50.860;6.208;2023-03-04T09:11:22;9.30;;;2.33;;
7525;SDS011;3804;50.860;6.208;2023-03-04T09:13:49;12.63;;;2.40;;
7525;SDS011;3804;50.860;6.208;2023-03-04T09:16:17;8.10;;;2.70;;
7525;SDS011;3804;50.860;6.208;2023-03-04T09:18:44;9.70;;;2.87;;
7525;SDS011;3804;50.860;6.208;2023-03-04T09:21:10;5.83;;;1.80;;
7525;SDS011;3804;50.860;6.208;2023-03-04T09:23:38;6.07;;;2.03;;
7525;SDS011;3804;50.860;6.208;2023-03-04T09:26:16;4.17;;;1.57;;
7525;SDS011;3804;50.860;6.208;2023-03-04T09:28:44;7.67;;;2.10;;
7525;SDS011;3804;50.860;6.208;2023-03-04T09:31:12;6.27;;;1.73;;
7525;SDS011;3804;50.860;6.208;2023-03-04T09:33:38;7.13;;;1.90;;
7525;SDS011;3804;50.860;6.208;2023-03-04T09:36:07;6.23;;;2.00;;
7525;SDS011;3804;50.860;6.208;2023-03-04T09:38:34;4.97;;;1.97;;
7525;SDS011;3804;50.860;6.208;2023-03-04T09:41:02;7.33;;;2.20;;
7525;SDS011;3804;50.860;6.208;2023-03-04T09:43:30;7.77;;;1.93;;
7525;SDS011;3804;50.860;6.208;2023-03-04T09:45:58;5.77;;;2.17;;
7525;SDS011;3804;50.860;6.208;2023-03-04T09:48:27;5.40;;;1.77;;
7525;SDS011;3804;50.860;6.208;2023-03-04T09:56:14;5.83;;;2.50;;
7525;SDS011;3804;50.860;6.208;2023-03-04T09:58:43;6.60;;;1.83;;
7525;SDS011;3804;50.860;6.208;2023-03-04T10:06:30;3.57;;;1.53;;
7525;SDS011;3804;50.860;6.208;2023-03-04T10:11:37;5.80;;;1.80;;
7525;SDS011;3804;50.860;6.208;2023-03-04T10:19:30;15.00;;;6.03;;
7525;SDS011;3804;50.860;6.208;2023-03-04T10:22:00;9.20;;;3.57;;
7525;SDS011;3804;50.860;6.208;2023-03-04T10:24:27;9.23;;;3.27;;
7525;SDS011;3804;50.860;6.208;2023-03-04T10:26:56;7.87;;;2.63;;
7525;SDS011;3804;50.860;6.208;2023-03-04T10:29:27;11.17;;;4.33;;
7525;SDS011;3804;50.860;6.208;2023-03-04T10:31:55;10.20;;;4.40;;
7525;SDS011;3804;50.860;6.208;2023-03-04T10:34:22;8.23;;;4.27;;
7525;SDS011;3804;50.860;6.208;2023-03-04T10:36:53;8.50;;;4.30;;
7525;SDS011;3804;50.860;6.208;2023-03-04T10:39:23;6.57;;;2.50;;
7525;SDS011;3804;50.860;6.208;2023-03-04T10:41:56;5.57;;;2.30;;
7525;SDS011;3804;50.860;6.208;2023-03-04T10:44:23;4.17;;;2.13;;
7525;SDS011;3804;50.860;6.208;2023-03-04T10:46:52;4.90;;;2.37;;
7525;SDS011;3804;50.860;6.208;2023-03-04T10:49:20;4.50;;;2.10;;
7525;SDS011;3804;50.860;6.208;2023-03-04T10:52:11;3.70;;;1.63;;
7525;SDS011;3804;50.860;6.208;2023-03-04T10:54:40;4.03;;;1.70;;
7525;SDS011;3804;50.860;6.208;2023-03-04T10:57:14;4.53;;;2.10;;
7525;SDS011;3804;50.860;6.208;2023-03-04T10:59:49;4.97;;;1.77;;
7525;SDS011;3804;50.860;6.208;2023-03-04T11:04:55;8.47;;;3.67;;
7525;SDS011;3804;50.860;6.208;2023-03-04T11:07:23;6.17;;;2.50;;
7525;SDS011;3804;50.860;6.208;2023-03-04T11:09:50;4.37;;;2.20;;
7525;SDS011;3804;50.860;6.208;2023-03-04T11:12:18;5.03;;;2.17;;
7525;SDS011;3804;50.860;6.208;2023-03-04T11:14:50;4.37;;;2.63;;
7525;SDS011;3804;50.860;6.208;2023-03-04T11:17:21;9.90;;;4.30;;
7525;SDS011;3804;50.860;6.208;2023-03-04T11:19:53;3.60;;;2.20;;
7525;SDS011;3804;50.860;6.208;2023-03-04T11:22:22;6.53;;;2.33;;
7525;SDS011;3804;50.860;6.208;2023-03-04T11:25:11;5.10;;;2.27;;
7525;SDS011;3804;50.860;6.208;2023-03-04T11:27:43;4.00;;;2.47;;
7525;SDS011;3804;50.860;6.208;2023-03-04T11:32:48;2.60;;;1.63;;
7525;SDS011;3804;50.860;6.208;2023-03-04T11:35:19;2.87;;;1.90;;
7525;SDS011;3804;50.860;6.208;2023-03-04T11:37:52;5.67;;;2.10;;
7525;SDS011;3804;50.860;6.208;2023-03-04T11:40:27;4.00;;;2.20;;
7525;SDS011;3804;50.860;6.208;2023-03-04T11:42:56;4.57;;;1.80;;
7525;SDS011;3804;50.860;6.208;2023-03-04T11:48:18;4.77;;;1.27;;
7525;SDS011;3804;50.860;6.208;2023-03-04T11:50:53;4.17;;;1.50;;
7525;SDS011;3804;50.860;6.208;2023-03-04T11:55:55;2.93;;;1.70;;
7525;SDS011;3804;50.860;6.208;2023-03-04T11:58:39;1.80;;;1.23;;
7525;SDS011;3804;50.860;6.208;2023-03-04T12:01:25;3.93;;;1.53;;
7525;SDS011;3804;50.860;6.208;2023-03-04T12:04:02;2.43;;;1.37;;
7525;SDS011;3804;50.860;6.208;2023-03-04T12:07:19;1.80;;;1.13;;
7525;SDS011;3804;50.860;6.208;2023-03-04T12:11:58;3.63;;;1.50;;
7525;SDS011;3804;50.860;6.208;2023-03-04T12:14:28;2.90;;;1.73;;
7525;SDS011;3804;50.860;6.208;2023-03-04T12:19:38;2.60;;;1.30;;
7525;SDS011;3804;50.860;6.208;2023-03-04T12:25:14;3.97;;;1.53;;
7525;SDS011;3804;50.860;6.208;2023-03-04T12:27:50;2.47;;;1.50;;
7525;SDS011;3804;50.860;6.208;2023-03-04T12:33:10;4.30;;;1.90;;
7525;SDS011;3804;50.860;6.208;2023-03-04T12:35:45;3.30;;;1.60;;
7525;SDS011;3804;50.860;6.208;2023-03-04T12:45:58;2.93;;;1.30;;
7525;SDS011;3804;50.860;6.208;2023-03-04T12:57:04;2.90;;;1.40;;
7525;SDS011;3804;50.860;6.208;2023-03-04T12:59:04;4.37;;;1.67;;
7525;SDS011;3804;50.860;6.208;2023-03-04T13:01:35;3.20;;;1.60;;
7525;SDS011;3804;50.860;6.208;2023-03-04T13:04:08;3.70;;;1.90;;
7525;SDS011;3804;50.860;6.208;2023-03-04T13:09:25;1.80;;;1.50;;
7525;SDS011;3804;50.860;6.208;2023-03-04T13:12:00;4.23;;;1.70;;
7525;SDS011;3804;50.860;6.208;2023-03-04T13:14:28;1.97;;;1.40;;
7525;SDS011;3804;50.860;6.208;2023-03-04T13:16:56;2.83;;;1.80;;
7525;SDS011;3804;50.860;6.208;2023-03-04T13:22:28;4.60;;;2.33;;
7525;SDS011;3804;50.860;6.208;2023-03-04T13:24:56;11.07;;;2.23;;
7525;SDS011;3804;50.860;6.208;2023-03-04T13:35:56;4.67;;;1.60;;
7525;SDS011;3804;50.860;6.208;2023-03-04T13:43:48;3.23;;;1.63;;
7525;SDS011;3804;50.860;6.208;2023-03-04T13:51:16;3.60;;;1.90;;
7525;SDS011;3804;50.860;6.208;2023-03-04T13:54:05;3.93;;;1.50;;
7525;SDS011;3804;50.860;6.208;2023-03-04T13:56:37;3.67;;;1.67;;
7525;SDS011;3804;50.860;6.208;2023-03-04T13:59:09;4.47;;;2.40;;
7525;SDS011;3804;50.860;6.208;2023-03-04T14:04:27;4.37;;;2.50;;
7525;SDS011;3804;50.860;6.208;2023-03-04T14:06:54;4.23;;;1.83;;
7525;SDS011;3804;50.860;6.208;2023-03-04T14:09:24;3.57;;;1.70;;
7525;SDS011;3804;50.860;6.208;2023-03-04T14:11:56;2.97;;;2.20;;
7525;SDS011;3804;50.860;6.208;2023-03-04T14:14:25;5.70;;;2.40;;
7525;SDS011;3804;50.860;6.208;2023-03-04T14:16:59;2.53;;;1.50;;
7525;SDS011;3804;50.860;6.208;2023-03-04T14:19:35;2.90;;;1.77;;
7525;SDS011;3804;50.860;6.208;2023-03-04T14:25:02;2.97;;;1.70;;
7525;SDS011;3804;50.860;6.208;2023-03-04T14:27:30;2.57;;;1.90;;
7525;SDS011;3804;50.860;6.208;2023-03-04T14:29:59;4.07;;;2.20;;
7525;SDS011;3804;50.860;6.208;2023-03-04T14:32:26;2.50;;;1.90;;
7525;SDS011;3804;50.860;6.208;2023-03-04T14:34:56;4.77;;;1.80;;
7525;SDS011;3804;50.860;6.208;2023-03-04T14:37:25;3.27;;;2.03;;
7525;SDS011;3804;50.860;6.208;2023-03-04T14:39:53;2.87;;;2.07;;
7525;SDS011;3804;50.860;6.208;2023-03-04T14:42:21;5.57;;;2.17;;
7525;SDS011;3804;50.860;6.208;2023-03-04T14:44:50;6.27;;;2.97;;
7525;SDS011;3804;50.860;6.208;2023-03-04T14:47:22;7.30;;;3.10;;
7525;SDS011;3804;50.860;6.208;2023-03-04T14:49:51;6.63;;;3.33;;
7525;SDS011;3804;50.860;6.208;2023-03-04T14:52:32;8.27;;;4.17;;
7525;SDS011;3804;50.860;6.208;2023-03-04T14:55:52;4.67;;;2.50;;
7525;SDS011;3804;50.860;6.208;2023-03-04T14:57:49;4.80;;;2.80;;
7525;SDS011;3804;50.860;6.208;2023-03-04T15:02:54;4.53;;;2.40;;
7525;SDS011;3804;50.860;6.208;2023-03-04T15:05:29;4.37;;;2.30;;
7525;SDS011;3804;50.860;6.208;2023-03-04T15:07:57;4.80;;;2.77;;
7525;SDS011;3804;50.860;6.208;2023-03-04T15:10:26;3.73;;;2.50;;
7525;SDS011;3804;50.860;6.208;2023-03-04T15:12:54;5.73;;;2.53;;
7525;SDS011;3804;50.860;6.208;2023-03-04T15:21:23;7.27;;;3.30;;
7525;SDS011;3804;50.860;6.208;2023-03-04T15:23:31;8.40;;;4.00;;
7525;SDS011;3804;50.860;6.208;2023-03-04T15:26:00;4.47;;;2.67;;
7525;SDS011;3804;50.860;6.208;2023-03-04T15:28:29;5.90;;;3.27;;
7525;SDS011;3804;50.860;6.208;2023-03-04T15:30:57;5.67;;;3.00;;
7525;SDS011;3804;50.860;6.208;2023-03-04T15:33:24;5.47;;;3.00;;
7525;SDS011;3804;50.860;6.208;2023-03-04T15:35:52;9.20;;;3.23;;
7525;SDS011;3804;50.860;6.208;2023-03-04T15:38:19;5.67;;;3.17;;
7525;SDS011;3804;50.860;6.208;2023-03-04T15:40:46;5.03;;;3.80;;
7525;SDS011;3804;50.860;6.208;2023-03-04T15:43:15;7.13;;;3.83;;
7525;SDS011;3804;50.860;6.208;2023-03-04T15:45:43;5.73;;;3.43;;
7525;SDS011;3804;50.860;6.208;2023-03-04T15:48:11;6.50;;;3.37;;
7525;SDS011;3804;50.860;6.208;2023-03-04T15:50:41;6.90;;;4.47;;
7525;SDS011;3804;50.860;6.208;2023-03-04T15:53:29;6.73;;;3.07;;
7525;SDS011;3804;50.860;6.208;2023-03-04T15:55:56;5.10;;;3.47;;
7525;SDS011;3804;50.860;6.208;2023-03-04T15:58:23;8.00;;;3.63;;
7525;SDS011;3804;50.860;6.208;2023-03-04T16:00:50;7.63;;;4.13;;
7525;SDS011;3804;50.860;6.208;2023-03-04T16:03:17;5.27;;;3.60;;
7525;SDS011;3804;50.860;6.208;2023-03-04T16:05:46;7.03;;;3.60;;
7525;SDS011;3804;50.860;6.208;2023-03-04T16:08:14;7.93;;;4.23;;
7525;SDS011;3804;50.860;6.208;2023-03-04T16:10:41;7.90;;;4.10;;
7525;SDS011;3804;50.860;6.208;2023-03-04T16:13:16;9.10;;;4.47;;
7525;SDS011;3804;50.860;6.208;2023-03-04T16:15:44;5.33;;;4.07;;
7525;SDS011;3804;50.860;6.208;2023-03-04T16:18:11;10.13;;;5.37;;
7525;SDS011;3804;50.860;6.208;2023-03-04T16:20:38;8.03;;;5.40;;
7525;SDS011;3804;50.860;6.208;2023-03-04T16:23:08;8.03;;;4.87;;
7525;SDS011;3804;50.860;6.208;2023-03-04T16:25:36;10.10;;;4.80;;
7525;SDS011;3804;50.860;6.208;2023-03-04T16:28:02;6.93;;;4.67;;
7525;SDS011;3804;50.860;6.208;2023-03-04T16:30:29;7.83;;;5.00;;
7525;SDS011;3804;50.860;6.208;2023-03-04T16:32:57;9.23;;;5.00;;
7525;SDS011;3804;50.860;6.208;2023-03-04T16:35:23;7.30;;;5.33;;
7525;SDS011;3804;50.860;6.208;2023-03-04T16:37:52;10.17;;;5.50;;
7525;SDS011;3804;50.860;6.208;2023-03-04T16:40:21;9.23;;;5.07;;
7525;SDS011;3804;50.860;6.208;2023-03-04T16:42:49;9.10;;;6.30;;
7525;SDS011;3804;50.860;6.208;2023-03-04T16:45:17;8.33;;;6.07;;
7525;SDS011;3804;50.860;6.208;2023-03-04T16:47:44;10.80;;;6.27;;
7525;SDS011;3804;50.860;6.208;2023-03-04T16:50:12;11.13;;;7.20;;